sensor_id;sensor_type;location;lat;lon;timestamp;pressure;altitude;pressure_sealevel;temperature;humidity
56668;BME280;42542;48.360;10.958;2023-03-11T00:00:40;94901.25;;;2.59;62.28
56668;BME280;42542;48.360;10.958;2023-03-11T00:03:47;94908.16;;;2.60;63.21
56668;BME280;42542;48.360;10.958;2023-03-11T00:06:51;94899.88;;;2.55;63.29
56668;BME280;42542;48.360;10.958;2023-03-11T00:09:59;94899.19;;;2.53;63.49
56668;BME280;42542;48.360;10.958;2023-03-11T00:13:11;94907.09;;;2.53;62.87
56668;BME280;42542;48.360;10.958;2023-03-11T00:16:15;94908.06;;;2.52;63.38
56668;BME280;42542;48.360;10.958;2023-03-11T00:19:18;94914.03;;;2.54;63.07
56668;BME280;42542;48.360;10.958;2023-03-11T00:22:22;94909.06;;;2.51;64.03
56668;BME280;42542;48.360;10.958;2023-03-11T00:25:27;94922.91;;;2.53;64.09
56668;BME280;42542;48.360;10.958;2023-03-11T00:28:32;94938.59;;;2.55;64.32
56668;BME280;42542;48.360;10.958;2023-03-11T00:31:35;94935.44;;;2.51;63.44
56668;BME280;42542;48.360;10.958;2023-03-11T00:34:43;94925.84;;;2.50;63.59
56668;BME280;42542;48.360;10.958;2023-03-11T00:37:48;94946.00;;;2.51;62.79
56668;BME280;42542;48.360;10.958;2023-03-11T00:40:54;94951.53;;;2.48;62.14
56668;BME280;42542;48.360;10.958;2023-03-11T00:43:58;94935.19;;;2.45;61.42
56668;BME280;42542;48.360;10.958;2023-03-11T00:47:01;94957.38;;;2.42;61.88
56668;BME280;42542;48.360;10.958;2023-03-11T00:50:05;94956.56;;;2.42;62.32
56668;BME280;42542;48.360;10.958;2023-03-11T00:53:09;94950.06;;;2.36;61.86
56668;BME280;42542;48.360;10.958;2023-03-11T00:56:14;94949.34;;;2.34;60.95
56668;BME280;42542;48.360;10.958;2023-03-11T00:59:19;94946.59;;;2.35;61.74
56668;BME280;42542;48.360;10.958;2023-03-11T01:02:22;94955.22;;;2.28;60.24
56668;BME280;42542;48.360;10.958;2023-03-11T01:05:28;94941.31;;;2.26;60.88
56668;BME280;42542;48.360;10.958;2023-03-11T01:08:37;94936.19;;;2.24;60.73
56668;BME280;42542;48.360;10.958;2023-03-11T01:11:41;94929.00;;;2.17;60.69
56668;BME280;42542;48.360;10.958;2023-03-11T01:14:47;94930.00;;;2.16;60.83
56668;BME280;42542;48.360;10.958;2023-03-11T01:17:51;94944.28;;;2.13;60.03
56668;BME280;42542;48.360;10.958;2023-03-11T01:20:56;94948.16;;;2.09;61.11
56668;BME280;42542;48.360;10.958;2023-03-11T01:24:00;94951.09;;;2.06;61.00
56668;BME280;42542;48.360;10.958;2023-03-11T01:27:10;94956.38;;;2.06;61.88
56668;BME280;42542;48.360;10.958;2023-03-11T01:30:21;94954.56;;;1.97;60.91
56668;BME280;42542;48.360;10.958;2023-03-11T01:33:25;94949.16;;;1.99;61.24
56668;BME280;42542;48.360;10.958;2023-03-11T01:36:32;94950.97;;;1.98;61.96
56668;BME280;42542;48.360;10.958;2023-03-11T01:39:34;94958.16;;;1.96;62.23
56668;BME280;42542;48.360;10.958;2023-03-11T01:42:37;94933.91;;;1.92;62.52
56668;BME280;42542;48.360;10.958;2023-03-11T01:49:04;94969.41;;;1.88;63.06
56668;BME280;42542;48.360;10.958;2023-03-11T01:52:10;94954.88;;;1.84;62.67
56668;BME280;42542;48.360;10.958;2023-03-11T01:55:23;94953.31;;;1.82;62.99
56668;BME280;42542;48.360;10.958;2023-03-11T01:58:37;94942.66;;;1.83;63.93
56668;BME280;42542;48.360;10.958;2023-03-11T02:02:09;94942.25;;;1.78;63.95
56668;BME280;42542;48.360;10.958;2023-03-11T02:05:20;94964.84;;;1.71;64.08
56668;BME280;42542;48.360;10.958;2023-03-11T02:08:24;94973.03;;;1.68;64.55
56668;BME280;42542;48.360;10.958;2023-03-11T02:11:33;94973.16;;;1.67;64.83
56668;BME280;42542;48.360;10.958;2023-03-11T02:14:38;94995.88;;;1.68;64.54
56668;BME280;42542;48.360;10.958;2023-03-11T02:17:47;94980.50;;;1.63;65.38
56668;BME280;42542;48.360;10.958;2023-03-11T02:27:32;94989.94;;;1.56;62.59
56668;BME280;42542;48.360;10.958;2023-03-11T02:30:41;94974.53;;;1.51;64.00
56668;BME280;42542;48.360;10.958;2023-03-11T02:33:45;94963.31;;;1.49;63.10
56668;BME280;42542;48.360;10.958;2023-03-11T02:36:48;94946.97;;;1.46;63.50
56668;BME280;42542;48.360;10.958;2023-03-11T02:39:53;94960.81;;;1.48;63.82
56668;BME280;42542;48.360;10.958;2023-03-11T02:43:00;94964.72;;;1.44;63.19
56668;BME280;42542;48.360;10.958;2023-03-11T02:46:08;94964.97;;;1.41;63.57
56668;BME280;42542;48.360;10.958;2023-03-11T02:49:14;94965.25;;;1.47;64.05
56668;BME280;42542;48.360;10.958;2023-03-11T02:52:20;94969.97;;;1.44;64.27
56668;BME280;42542;48.360;10.958;2023-03-11T02:55:25;94982.31;;;1.43;64.76
56668;BME280;42542;48.360;10.958;2023-03-11T02:58:29;94987.13;;;1.38;64.88
56668;BME280;42542;48.360;10.958;2023-03-11T03:01:32;94975.09;;;1.36;65.38
56668;BME280;42542;48.360;10.958;2023-03-11T03:04:35;94976.75;;;1.37;65.05
56668;BME280;42542;48.360;10.958;2023-03-11T03:07:38;94968.56;;;1.30;65.48
56668;BME280;42542;48.360;10.958;2023-03-11T03:10:42;94967.31;;;1.34;65.67
56668;BME280;42542;48.360;10.958;2023-03-11T03:13:45;94992.94;;;1.32;65.33
56668;BME280;42542;48.360;10.958;2023-03-11T03:16:48;94998.34;;;1.31;65.44
56668;BME280;42542;48.360;10.958;2023-03-11T03:19:56;94989.34;;;1.33;65.55
56668;BME280;42542;48.360;10.958;2023-03-11T03:23:01;94995.72;;;1.31;66.17
56668;BME280;42542;48.360;10.958;2023-03-11T03:26:12;94984.50;;;1.29;65.79
56668;BME280;42542;48.360;10.958;2023-03-11T03:29:22;94996.69;;;1.30;66.63
56668;BME280;42542;48.360;10.958;2023-03-11T03:32:27;95005.41;;;1.30;66.73
56668;BME280;42542;48.360;10.958;2023-03-11T03:35:30;95015.94;;;1.30;66.66
56668;BME280;42542;48.360;10.958;2023-03-11T03:38:40;95006.41;;;1.29;66.63
56668;BME280;42542;48.360;10.958;2023-03-11T03:41:44;94996.00;;;1.28;67.31
56668;BME280;42542;48.360;10.958;2023-03-11T03:44:54;95017.06;;;1.28;67.33
56668;BME280;42542;48.360;10.958;2023-03-11T03:47:57;95015.94;;;1.30;67.63
56668;BME280;42542;48.360;10.958;2023-03-11T03:51:04;95041.16;;;1.33;67.78
56668;BME280;42542;48.360;10.958;2023-03-11T03:54:15;95039.63;;;1.30;67.72
56668;BME280;42542;48.360;10.958;2023-03-11T03:57:17;95047.84;;;1.37;67.66
56668;BME280;42542;48.360;10.958;2023-03-11T04:00:27;95031.34;;;1.35;67.82
56668;BME280;42542;48.360;10.958;2023-03-11T04:03:35;95041.44;;;1.39;68.31
56668;BME280;42542;48.360;10.958;2023-03-11T04:06:45;95038.69;;;1.41;68.08
56668;BME280;42542;48.360;10.958;2023-03-11T04:09:50;95029.13;;;1.40;68.56
56668;BME280;42542;48.360;10.958;2023-03-11T04:12:54;95032.03;;;1.37;67.46
56668;BME280;42542;48.360;10.958;2023-03-11T04:15:57;95045.88;;;1.39;66.99
56668;BME280;42542;48.360;10.958;2023-03-11T04:18:58;95044.09;;;1.30;66.29
56668;BME280;42542;48.360;10.958;2023-03-11T04:22:02;95045.31;;;1.26;65.89
56668;BME280;42542;48.360;10.958;2023-03-11T04:25:07;95044.88;;;1.21;65.24
56668;BME280;42542;48.360;10.958;2023-03-11T04:28:18;95051.34;;;1.16;65.14
56668;BME280;42542;48.360;10.958;2023-03-11T04:31:26;95047.59;;;1.09;63.83
56668;BME280;42542;48.360;10.958;2023-03-11T04:34:34;95062.53;;;1.09;63.53
56668;BME280;42542;48.360;10.958;2023-03-11T04:37:39;95059.78;;;1.01;62.35
56668;BME280;42542;48.360;10.958;2023-03-11T04:40:46;95071.25;;;1.00;62.28
56668;BME280;42542;48.360;10.958;2023-03-11T04:43:50;95060.28;;;0.95;62.65
56668;BME280;42542;48.360;10.958;2023-03-11T04:46:55;95065.25;;;0.88;61.24
56668;BME280;42542;48.360;10.958;2023-03-11T04:50:00;95081.97;;;0.87;61.16
56668;BME280;42542;48.360;10.958;2023-03-11T04:53:03;95079.03;;;0.81;60.67
56668;BME280;42542;48.360;10.958;2023-03-11T04:56:05;95083.22;;;0.83;61.26
56668;BME280;42542;48.360;10.958;2023-03-11T04:59:12;95095.94;;;0.78;60.55
56668;BME280;42542;48.360;10.958;2023-03-11T05:02:18;95100.50;;;0.76;60.77
56668;BME280;42542;48.360;10.958;2023-03-11T05:05:28;95093.84;;;0.72;60.33
56668;BME280;42542;48.360;10.958;2023-03-11T05:08:31;95109.16;;;0.67;59.71
56668;BME280;42542;48.360;10.958;2023-03-11T05:11:35;95114.69;;;0.64;60.39
56668;BME280;42542;48.360;10.958;2023-03-11T05:14:38;95094.53;;;0.53;61.21
56668;BME280;42542;48.360;10.958;2023-03-11T05:17:41;95103.00;;;0.57;61.62
56668;BME280;42542;48.360;10.958;2023-03-11T05:20:46;95101.59;;;0.53;62.06
56668;BME280;42542;48.360;10.958;2023-03-11T05:23:58;95118.31;;;0.52;62.20
56668;BME280;42542;48.360;10.958;2023-03-11T05:27:00;95120.09;;;0.51;62.87
56668;BME280;42542;48.360;10.958;2023-03-11T05:30:12;95128.16;;;0.50;63.58
56668;BME280;42542;48.360;10.958;2023-03-11T05:33:18;95131.03;;;0.47;63.79
56668;BME280;42542;48.360;10.958;2023-03-11T05:36:22;95135.84;;;0.42;63.78
56668;BME280;42542;48.360;10.958;2023-03-11T05:39:26;95135.00;;;0.41;63.79
56668;BME280;42542;48.360;10.958;2023-03-11T05:42:28;95140.38;;;0.39;63.29
56668;BME280;42542;48.360;10.958;2023-03-11T05:45:33;95131.22;;;0.34;64.15
56668;BME280;42542;48.360;10.958;2023-03-11T05:48:37;95146.13;;;0.33;63.65
56668;BME280;42542;48.360;10.958;2023-03-11T05:51:39;95147.94;;;0.33;64.39
56668;BME280;42542;48.360;10.958;2023-03-11T05:54:47;95154.16;;;0.32;64.30
56668;BME280;42542;48.360;10.958;2023-03-11T05:57:52;95157.72;;;0.31;64.16
56668;BME280;42542;48.360;10.958;2023-03-11T06:01:06;95153.31;;;0.31;64.57
56668;BME280;42542;48.360;10.958;2023-03-11T06:04:11;95152.25;;;0.23;64.66
56668;BME280;42542;48.360;10.958;2023-03-11T06:07:16;95149.31;;;0.16;64.83
56668;BME280;42542;48.360;10.958;2023-03-11T06:10:20;95158.84;;;0.17;64.61
56668;BME280;42542;48.360;10.958;2023-03-11T06:13:23;95167.81;;;0.15;64.91
56668;BME280;42542;48.360;10.958;2023-03-11T06:16:28;95153.38;;;0.09;65.41
56668;BME280;42542;48.360;10.958;2023-03-11T06:19:35;95161.03;;;0.12;65.42
56668;BME280;42542;48.360;10.958;2023-03-11T06:22:39;95168.81;;;0.14;65.71
56668;BME280;42542;48.360;10.958;2023-03-11T06:25:57;95171.53;;;0.12;66.41
56668;BME280;42542;48.360;10.958;2023-03-11T06:29:08;95156.84;;;0.10;67.15
56668;BME280;42542;48.360;10.958;2023-03-11T06:32:15;95166.78;;;0.06;67.11
56668;BME280;42542;48.360;10.958;2023-03-11T06:35:20;95175.88;;;0.02;67.36
56668;BME280;42542;48.360;10.958;2023-03-11T06:38:25;95183.41;;;0.07;67.85
56668;BME280;42542;48.360;10.958;2023-03-11T06:41:33;95189.34;;;0.09;68.43
56668;BME280;42542;48.360;10.958;2023-03-11T06:44:39;95188.50;;;0.08;67.98
56668;BME280;42542;48.360;10.958;2023-03-11T06:47:43;95184.91;;;0.09;68.44
56668;BME280;42542;48.360;10.958;2023-03-11T06:50:54;95203.06;;;0.12;68.60
56668;BME280;42542;48.360;10.958;2023-03-11T06:54:01;95203.06;;;0.12;68.36
56668;BME280;42542;48.360;10.958;2023-03-11T06:57:06;95204.75;;;0.13;67.74
56668;BME280;42542;48.360;10.958;2023-03-11T07:00:11;95208.34;;;0.12;67.99
56668;BME280;42542;48.360;10.958;2023-03-11T07:03:19;95219.28;;;0.17;68.02
56668;BME280;42542;48.360;10.958;2023-03-11T07:06:25;95216.44;;;0.20;67.82
56668;BME280;42542;48.360;10.958;2023-03-11T07:09:47;95216.16;;;0.23;67.38
56668;BME280;42542;48.360;10.958;2023-03-11T07:13:10;95232.88;;;0.22;66.53
56668;BME280;42542;48.360;10.958;2023-03-11T07:16:19;95222.75;;;0.18;66.57
56668;BME280;42542;48.360;10.958;2023-03-11T07:19:25;95227.53;;;0.24;66.32
56668;BME280;42542;48.360;10.958;2023-03-11T07:22:29;95241.25;;;0.27;66.83
56668;BME280;42542;48.360;10.958;2023-03-11T07:25:33;95235.06;;;0.28;66.36
56668;BME280;42542;48.360;10.958;2023-03-11T07:28:41;95249.25;;;0.26;66.28
56668;BME280;42542;48.360;10.958;2023-03-11T07:31:45;95248.88;;;0.30;66.20
56668;BME280;42542;48.360;10.958;2023-03-11T07:34:52;95262.75;;;0.32;65.63
56668;BME280;42542;48.360;10.958;2023-03-11T07:37:56;95258.91;;;0.36;65.55
56668;BME280;42542;48.360;10.958;2023-03-11T07:40:59;95261.41;;;0.38;65.27
56668;BME280;42542;48.360;10.958;2023-03-11T07:44:02;95266.66;;;0.38;64.88
56668;BME280;42542;48.360;10.958;2023-03-11T07:47:05;95265.81;;;0.49;64.69
56668;BME280;42542;48.360;10.958;2023-03-11T07:50:09;95266.25;;;0.54;64.10
56668;BME280;42542;48.360;10.958;2023-03-11T07:53:14;95271.13;;;0.58;63.56
56668;BME280;42542;48.360;10.958;2023-03-11T07:56:19;95269.94;;;0.62;62.84
56668;BME280;42542;48.360;10.958;2023-03-11T07:59:22;95274.81;;;0.67;61.83
56668;BME280;42542;48.360;10.958;2023-03-11T08:02:26;95280.78;;;0.69;61.05
56668;BME280;42542;48.360;10.958;2023-03-11T08:05:32;95286.50;;;0.74;60.90
56668;BME280;42542;48.360;10.958;2023-03-11T08:08:34;95280.06;;;0.78;61.36
56668;BME280;42542;48.360;10.958;2023-03-11T08:11:36;95287.44;;;0.84;61.49
56668;BME280;42542;48.360;10.958;2023-03-11T08:14:38;95277.25;;;0.91;61.35
56668;BME280;42542;48.360;10.958;2023-03-11T08:17:40;95290.09;;;1.05;60.57
56668;BME280;42542;48.360;10.958;2023-03-11T08:20:44;95293.16;;;1.10;59.37
56668;BME280;42542;48.360;10.958;2023-03-11T08:23:51;95293.63;;;1.15;59.42
56668;BME280;42542;48.360;10.958;2023-03-11T08:26:52;95295.28;;;1.16;58.75
56668;BME280;42542;48.360;10.958;2023-03-11T08:30:09;95292.16;;;1.22;58.70
56668;BME280;42542;48.360;10.958;2023-03-11T08:33:13;95295.75;;;1.21;58.88
56668;BME280;42542;48.360;10.958;2023-03-11T08:36:19;95305.91;;;1.26;58.22
56668;BME280;42542;48.360;10.958;2023-03-11T08:39:23;95306.59;;;1.28;58.28
56668;BME280;42542;48.360;10.958;2023-03-11T08:42:29;95315.91;;;1.32;59.58
56668;BME280;42542;48.360;10.958;2023-03-11T08:45:31;95316.53;;;1.45;58.94
56668;BME280;42542;48.360;10.958;2023-03-11T08:48:38;95330.31;;;1.48;58.09
56668;BME280;42542;48.360;10.958;2023-03-11T08:51:43;95332.81;;;1.50;57.99
56668;BME280;42542;48.360;10.958;2023-03-11T08:54:47;95332.09;;;1.48;57.95
56668;BME280;42542;48.360;10.958;2023-03-11T08:57:50;95336.00;;;1.53;58.02
56668;BME280;42542;48.360;10.958;2023-03-11T09:00:59;95331.84;;;1.51;57.45
56668;BME280;42542;48.360;10.958;2023-03-11T09:04:09;95331.34;;;1.57;57.50
56668;BME280;42542;48.360;10.958;2023-03-11T09:07:16;95326.63;;;1.61;57.07
56668;BME280;42542;48.360;10.958;2023-03-11T09:10:26;95335.56;;;1.69;57.71
56668;BME280;42542;48.360;10.958;2023-03-11T09:13:32;95334.19;;;1.75;57.40
56668;BME280;42542;48.360;10.958;2023-03-11T09:16:35;95335.16;;;1.74;57.93
56668;BME280;42542;48.360;10.958;2023-03-11T09:19:47;95338.19;;;1.69;57.72
56668;BME280;42542;48.360;10.958;2023-03-11T09:22:53;95326.25;;;1.65;58.07
56668;BME280;42542;48.360;10.958;2023-03-11T09:25:57;95327.09;;;1.66;57.79
56668;BME280;42542;48.360;10.958;2023-03-11T09:29:19;95330.41;;;1.68;57.69
56668;BME280;42542;48.360;10.958;2023-03-11T09:32:25;95323.63;;;1.65;57.22
56668;BME280;42542;48.360;10.958;2023-03-11T09:35:29;95337.63;;;1.66;56.98
56668;BME280;42542;48.360;10.958;2023-03-11T09:38:45;95345.25;;;1.69;58.50
56668;BME280;42542;48.360;10.958;2023-03-11T09:45:20;95353.09;;;1.80;58.69
56668;BME280;42542;48.360;10.958;2023-03-11T09:48:48;95354.09;;;1.88;57.60
56668;BME280;42542;48.360;10.958;2023-03-11T09:52:15;95370.69;;;2.00;56.76
56668;BME280;42542;48.360;10.958;2023-03-11T09:55:32;95369.44;;;2.04;55.79
56668;BME280;42542;48.360;10.958;2023-03-11T10:01:50;95367.13;;;2.11;56.44
56668;BME280;42542;48.360;10.958;2023-03-11T10:15:48;95383.06;;;2.30;55.36
56668;BME280;42542;48.360;10.958;2023-03-11T10:19:07;95380.84;;;2.35;53.93
56668;BME280;42542;48.360;10.958;2023-03-11T10:22:36;95367.78;;;2.33;53.91
56668;BME280;42542;48.360;10.958;2023-03-11T10:26:11;95366.56;;;2.38;54.69
56668;BME280;42542;48.360;10.958;2023-03-11T10:32:38;95373.09;;;2.43;51.75
56668;BME280;42542;48.360;10.958;2023-03-11T10:35:48;95384.03;;;2.39;52.90
56668;BME280;42542;48.360;10.958;2023-03-11T10:38:58;95386.00;;;2.37;52.24
56668;BME280;42542;48.360;10.958;2023-03-11T10:42:05;95381.56;;;2.37;52.66
56668;BME280;42542;48.360;10.958;2023-03-11T10:45:16;95386.53;;;2.40;52.99
56668;BME280;42542;48.360;10.958;2023-03-11T10:48:27;95386.41;;;2.42;52.50
56668;BME280;42542;48.360;10.958;2023-03-11T10:51:35;95376.28;;;2.47;52.02
56668;BME280;42542;48.360;10.958;2023-03-11T10:54:44;95384.34;;;2.45;50.97
56668;BME280;42542;48.360;10.958;2023-03-11T10:58:03;95383.66;;;2.53;50.63
56668;BME280;42542;48.360;10.958;2023-03-11T11:01:16;95397.56;;;2.55;51.27
56668;BME280;42542;48.360;10.958;2023-03-11T11:04:44;95393.66;;;2.49;50.81
56668;BME280;42542;48.360;10.958;2023-03-11T11:08:15;95383.25;;;2.48;50.89
56668;BME280;42542;48.360;10.958;2023-03-11T11:11:23;95389.09;;;2.51;51.26
56668;BME280;42542;48.360;10.958;2023-03-11T11:14:50;95377.72;;;2.51;50.79
56668;BME280;42542;48.360;10.958;2023-03-11T11:17:59;95384.00;;;2.59;50.26
56668;BME280;42542;48.360;10.958;2023-03-11T11:24:26;95371.09;;;2.75;51.67
56668;BME280;42542;48.360;10.958;2023-03-11T11:27:28;95372.69;;;2.88;50.63
56668;BME280;42542;48.360;10.958;2023-03-11T11:30:36;95369.50;;;2.94;51.26
56668;BME280;42542;48.360;10.958;2023-03-11T11:33:48;95372.72;;;3.07;49.96
56668;BME280;42542;48.360;10.958;2023-03-11T11:36:51;95369.09;;;3.08;49.47
56668;BME280;42542;48.360;10.958;2023-03-11T11:40:20;95371.59;;;3.09;49.92
56668;BME280;42542;48.360;10.958;2023-03-11T11:43:45;95375.06;;;3.20;49.71
56668;BME280;42542;48.360;10.958;2023-03-11T11:46:56;95372.03;;;3.24;49.58
56668;BME280;42542;48.360;10.958;2023-03-11T11:50:03;95371.22;;;3.24;48.39
56668;BME280;42542;48.360;10.958;2023-03-11T11:53:33;95358.41;;;3.29;49.28
56668;BME280;42542;48.360;10.958;2023-03-11T11:56:39;95364.81;;;3.45;49.25
56668;BME280;42542;48.360;10.958;2023-03-11T11:59:44;95354.94;;;3.57;48.61
56668;BME280;42542;48.360;10.958;2023-03-11T12:09:46;95361.84;;;3.68;50.91
56668;BME280;42542;48.360;10.958;2023-03-11T12:16:54;95356.44;;;3.79;51.29
56668;BME280;42542;48.360;10.958;2023-03-11T12:20:30;95350.31;;;3.78;50.68
56668;BME280;42542;48.360;10.958;2023-03-11T12:23:55;95350.84;;;3.82;49.75
56668;BME280;42542;48.360;10.958;2023-03-11T12:27:14;95349.59;;;3.86;49.73
56668;BME280;42542;48.360;10.958;2023-03-11T12:30:32;95346.25;;;3.84;49.65
56668;BME280;42542;48.360;10.958;2023-03-11T12:33:49;95343.47;;;3.95;50.47
56668;BME280;42542;48.360;10.958;2023-03-11T12:36:59;95336.91;;;3.99;49.93
56668;BME280;42542;48.360;10.958;2023-03-11T12:40:47;95332.00;;;4.04;50.07
56668;BME280;42542;48.360;10.958;2023-03-11T12:47:20;95331.63;;;3.99;50.45
56668;BME280;42542;48.360;10.958;2023-03-11T12:50:40;95331.63;;;3.99;49.66
56668;BME280;42542;48.360;10.958;2023-03-11T12:53:47;95330.50;;;4.02;48.99
56668;BME280;42542;48.360;10.958;2023-03-11T13:03:54;95334.88;;;4.20;49.19
56668;BME280;42542;48.360;10.958;2023-03-11T13:10:35;95331.41;;;4.20;48.29
56668;BME280;42542;48.360;10.958;2023-03-11T13:13:40;95320.69;;;4.21;48.82
56668;BME280;42542;48.360;10.958;2023-03-11T13:16:50;95322.88;;;4.26;47.44
56668;BME280;42542;48.360;10.958;2023-03-11T13:20:00;95323.88;;;4.25;46.78
56668;BME280;42542;48.360;10.958;2023-03-11T13:26:38;95329.56;;;4.30;48.08
56668;BME280;42542;48.360;10.958;2023-03-11T13:33:24;95340.44;;;4.27;47.48
56668;BME280;42542;48.360;10.958;2023-03-11T13:36:41;95337.25;;;4.23;47.28
56668;BME280;42542;48.360;10.958;2023-03-11T13:40:30;95335.56;;;4.22;47.40
56668;BME280;42542;48.360;10.958;2023-03-11T13:43:44;95350.63;;;4.22;47.24
56668;BME280;42542;48.360;10.958;2023-03-11T13:47:00;95340.03;;;4.22;47.54
56668;BME280;42542;48.360;10.958;2023-03-11T13:50:34;95338.91;;;4.24;47.56
56668;BME280;42542;48.360;10.958;2023-03-11T13:53:50;95334.47;;;4.25;47.90
56668;BME280;42542;48.360;10.958;2023-03-11T13:56:58;95349.88;;;4.29;47.01
56668;BME280;42542;48.360;10.958;2023-03-11T14:00:17;95354.75;;;4.34;46.93
56668;BME280;42542;48.360;10.958;2023-03-11T14:03:32;95340.41;;;4.37;46.87
56668;BME280;42542;48.360;10.958;2023-03-11T14:06:38;95341.09;;;4.39;47.07
56668;BME280;42542;48.360;10.958;2023-03-11T14:09:47;95343.44;;;4.42;47.03
56668;BME280;42542;48.360;10.958;2023-03-11T14:13:03;95350.53;;;4.41;46.59
56668;BME280;42542;48.360;10.958;2023-03-11T14:19:36;95348.09;;;4.30;47.02
56668;BME280;42542;48.360;10.958;2023-03-11T14:22:44;95361.31;;;4.30;47.22
56668;BME280;42542;48.360;10.958;2023-03-11T14:25:57;95355.47;;;4.26;47.30
56668;BME280;42542;48.360;10.958;2023-03-11T14:29:11;95354.88;;;4.32;46.49
56668;BME280;42542;48.360;10.958;2023-03-11T14:32:25;95362.69;;;4.34;46.13
56668;BME280;42542;48.360;10.958;2023-03-11T14:35:30;95366.72;;;4.38;46.22
56668;BME280;42542;48.360;10.958;2023-03-11T14:38:41;95363.91;;;4.40;46.33
56668;BME280;42542;48.360;10.958;2023-03-11T14:41:46;95366.97;;;4.45;47.16
56668;BME280;42542;48.360;10.958;2023-03-11T14:45:15;95366.38;;;4.51;48.43
56668;BME280;42542;48.360;10.958;2023-03-11T14:48:38;95364.22;;;4.64;47.19
56668;BME280;42542;48.360;10.958;2023-03-11T14:51:43;95362.63;;;4.81;47.75
56668;BME280;42542;48.360;10.958;2023-03-11T14:54:50;95359.94;;;5.08;47.08
56668;BME280;42542;48.360;10.958;2023-03-11T15:01:39;95368.75;;;5.62;45.29
56668;BME280;42542;48.360;10.958;2023-03-11T15:04:45;95372.06;;;5.81;45.14
56668;BME280;42542;48.360;10.958;2023-03-11T15:07:57;95374.31;;;6.12;44.29
56668;BME280;42542;48.360;10.958;2023-03-11T15:11:25;95371.66;;;6.38;44.44
56668;BME280;42542;48.360;10.958;2023-03-11T15:14:33;95359.94;;;6.48;43.72
56668;BME280;42542;48.360;10.958;2023-03-11T15:17:52;95354.94;;;6.45;43.41
56668;BME280;42542;48.360;10.958;2023-03-11T15:21:03;95356.41;;;6.40;43.27
56668;BME280;42542;48.360;10.958;2023-03-11T15:24:30;95368.69;;;6.41;42.57
56668;BME280;42542;48.360;10.958;2023-03-11T15:27:40;95372.53;;;6.20;43.27
56668;BME280;42542;48.360;10.958;2023-03-11T15:30:44;95372.31;;;6.14;43.37
56668;BME280;42542;48.360;10.958;2023-03-11T15:37:23;95386.06;;;6.09;43.58
56668;BME280;42542;48.360;10.958;2023-03-11T15:40:29;95379.28;;;5.89;43.48
56668;BME280;42542;48.360;10.958;2023-03-11T15:43:48;95384.34;;;5.65;43.45
56668;BME280;42542;48.360;10.958;2023-03-11T15:46:51;95376.16;;;5.58;44.28
56668;BME280;42542;48.360;10.958;2023-03-11T15:49:56;95370.41;;;5.45;43.68
56668;BME280;42542;48.360;10.958;2023-03-11T15:53:04;95381.91;;;5.36;44.18
56668;BME280;42542;48.360;10.958;2023-03-11T15:56:16;95381.16;;;5.26;44.55
56668;BME280;42542;48.360;10.958;2023-03-11T15:59:27;95384.63;;;5.08;46.16
56668;BME280;42542;48.360;10.958;2023-03-11T16:02:31;95392.38;;;4.92;47.33
56668;BME280;42542;48.360;10.958;2023-03-11T16:05:35;95393.41;;;4.82;47.79
56668;BME280;42542;48.360;10.958;2023-03-11T16:08:41;95406.97;;;4.69;47.71
56668;BME280;42542;48.360;10.958;2023-03-11T16:11:45;95411.47;;;4.59;48.01
56668;BME280;42542;48.360;10.958;2023-03-11T16:14:49;95412.72;;;4.55;48.38
56668;BME280;42542;48.360;10.958;2023-03-11T16:17:57;95394.09;;;4.47;48.61
56668;BME280;42542;48.360;10.958;2023-03-11T16:21:14;95407.63;;;4.44;49.32
56668;BME280;42542;48.360;10.958;2023-03-11T16:24:22;95416.00;;;4.39;48.81
56668;BME280;42542;48.360;10.958;2023-03-11T16:27:26;95415.19;;;4.29;48.69
56668;BME280;42542;48.360;10.958;2023-03-11T16:30:32;95416.47;;;4.25;48.97
56668;BME280;42542;48.360;10.958;2023-03-11T16:33:39;95426.34;;;4.23;49.46
56668;BME280;42542;48.360;10.958;2023-03-11T16:36:45;95429.56;;;4.17;49.14
56668;BME280;42542;48.360;10.958;2023-03-11T16:39:49;95437.91;;;4.12;49.09
56668;BME280;42542;48.360;10.958;2023-03-11T16:42:54;95441.13;;;4.06;49.96
56668;BME280;42542;48.360;10.958;2023-03-11T16:46:01;95440.84;;;4.00;50.52
56668;BME280;42542;48.360;10.958;2023-03-11T16:49:06;95441.69;;;3.90;50.22
56668;BME280;42542;48.360;10.958;2023-03-11T16:52:13;95449.91;;;3.87;50.90
56668;BME280;42542;48.360;10.958;2023-03-11T16:55:26;95461.34;;;3.88;51.22
56668;BME280;42542;48.360;10.958;2023-03-11T16:58:32;95474.94;;;3.83;51.74
56668;BME280;42542;48.360;10.958;2023-03-11T17:01:35;95472.88;;;3.77;52.40
56668;BME280;42542;48.360;10.958;2023-03-11T17:04:39;95480.38;;;3.72;52.61
56668;BME280;42542;48.360;10.958;2023-03-11T17:07:45;95483.59;;;3.66;52.34
56668;BME280;42542;48.360;10.958;2023-03-11T17:10:47;95486.91;;;3.59;52.53
56668;BME280;42542;48.360;10.958;2023-03-11T17:13:56;95480.91;;;3.57;52.61
56668;BME280;42542;48.360;10.958;2023-03-11T17:17:16;95481.75;;;3.57;52.93
56668;BME280;42542;48.360;10.958;2023-03-11T17:20:21;95484.81;;;3.52;52.79
56668;BME280;42542;48.360;10.958;2023-03-11T17:23:25;95482.44;;;3.49;53.65
56668;BME280;42542;48.360;10.958;2023-03-11T17:26:28;95486.34;;;3.45;53.86
56668;BME280;42542;48.360;10.958;2023-03-11T17:29:34;95490.63;;;3.37;54.06
56668;BME280;42542;48.360;10.958;2023-03-11T17:32:39;95491.00;;;3.32;53.50
56668;BME280;42542;48.360;10.958;2023-03-11T17:35:46;95492.16;;;3.30;54.59
56668;BME280;42542;48.360;10.958;2023-03-11T17:38:52;95499.63;;;3.25;54.42
56668;BME280;42542;48.360;10.958;2023-03-11T17:41:54;95502.13;;;3.26;54.81
56668;BME280;42542;48.360;10.958;2023-03-11T17:45:00;95506.84;;;3.23;54.13
56668;BME280;42542;48.360;10.958;2023-03-11T17:48:03;95503.63;;;3.19;54.23
56668;BME280;42542;48.360;10.958;2023-03-11T17:51:08;95507.66;;;3.13;54.67
56668;BME280;42542;48.360;10.958;2023-03-11T17:54:11;95524.88;;;3.18;54.69